Time;durP1;ratioP1;P1;durP2;ratioP2;P2;SDS_P1;SDS_P2;PMS_P1;PMS_P2;Temp;Humidity;BMP_temperature;BMP_pressure;BME280_temperature;BME280_humidity;BME280_pressure;Samples;Min_cycle;Max_cycle;Signal;HPM_P1;HPM_P2
2023/02/15 00:08:40;;;;;;;48.1;33.7;;;;;;;4.3;81.8;100470;;;;
2023/02/15 00:18:40;;;;;;;44.2;29.4;;;;;;;4.2;81.8;100470;;;;
2023/02/15 00:28:40;;;;;;;44.2;29.4;;;;;;;4.1;82;100460;;;;
2023/02/15 00:39:40;;;;;;;44.2;29.4;;;;;;;4.2;82;100460;;;;
2023/02/15 00:49:40;;;;;;;39.7;27;;;;;;;4.3;81.6;100450;;;;
2023/02/15 00:59:40;;;;;;;39.7;27;;;;;;;4.3;81.1;100430;;;;
2023/02/15 01:10:40;;;;;;;39.7;27;;;;;;;4.2;80.5;100420;;;;
2023/02/15 01:20:41;;;;;;;23;17.6;;;;;;;4;79.9;100420;;;;
2023/02/15 01:31:40;;;;;;;23;17.6;;;;;;;4.1;79.5;100410;;;;
2023/02/15 01:42:40;;;;;;;23;17.6;;;;;;;4.1;79.7;100400;;;;
2023/02/15 01:52:40;;;;;;;19.4;13.7;;;;;;;4.1;80;100390;;;;
2023/02/15 02:02:40;;;;;;;19.4;13.7;;;;;;;4.1;79.6;100380;;;;
2023/02/15 02:13:40;;;;;;;22;14.2;;;;;;;4.1;79.8;100370;;;;
2023/02/15 02:23:40;;;;;;;22;14.2;;;;;;;4.1;79.5;100370;;;;
2023/02/15 02:33:40;;;;;;;22;14.2;;;;;;;4.1;79.6;100360;;;;
2023/02/15 02:44:42;;;;;;;22.3;14.2;;;;;;;4.1;79.6;100350;;;;
2023/02/15 02:55:40;;;;;;;22.3;14.2;;;;;;;4;79.8;100350;;;;
2023/02/15 03:05:40;;;;;;;22.3;14.2;;;;;;;3.9;80.4;100340;;;;
2023/02/15 03:16:45;;;;;;;21.9;13.7;;;;;;;3.9;80.1;100340;;;;
2023/02/15 03:26:40;;;;;;;21.9;13.7;;;;;;;3.9;80.4;100320;;;;
2023/02/15 03:36:40;;;;;;;21.9;13.7;;;;;;;3.6;81.2;100320;;;;
2023/02/15 03:46:40;;;;;;;19.9;13.4;;;;;;;3.6;81.3;100310;;;;
2023/02/15 04:07:40;;;;;;;19.9;13.4;;;;;;;3.6;81.7;100320;;;;
2023/02/15 04:29:40;;;;;;;21.9;14.9;;;;;;;3.5;81.9;100310;;;;
2023/02/15 04:39:40;;;;;;;21.9;14.9;;;;;;;3.7;81.8;100310;;;;
2023/02/15 04:50:40;;;;;;;26.6;16.4;;;;;;;3.6;82.1;100310;;;;
2023/02/15 05:00:40;;;;;;;26.6;16.4;;;;;;;3.7;81.8;100310;;;;
2023/02/15 05:10:40;;;;;;;26.6;16.4;;;;;;;3.6;81.9;100310;;;;
2023/02/15 05:20:40;;;;;;;22.5;13.4;;;;;;;3.6;81.8;100310;;;;
2023/02/15 05:30:40;;;;;;;22.5;13.4;;;;;;;3.6;81.7;100310;;;;
2023/02/15 05:41:40;;;;;;;22.5;13.4;;;;;;;3.5;81.9;100320;;;;
2023/02/15 05:52:40;;;;;;;15.9;11.5;;;;;;;3.4;81.9;100330;;;;
2023/02/15 06:03:40;;;;;;;15.9;11.5;;;;;;;3.3;82.5;100330;;;;
2023/02/15 06:14:40;;;;;;;18.6;11.7;;;;;;;3.1;82.8;100310;;;;
2023/02/15 06:24:42;;;;;;;18.6;11.7;;;;;;;2.8;83.8;100320;;;;
2023/02/15 06:34:40;;;;;;;18.6;11.7;;;;;;;3;83.7;100330;;;;
2023/02/15 06:44:40;;;;;;;16.1;9.7;;;;;;;2.9;83.5;100330;;;;
2023/02/15 06:54:40;;;;;;;16.1;9.7;;;;;;;3;83.2;100330;;;;
2023/02/15 07:04:40;;;;;;;16.1;9.7;;;;;;;2.8;83.4;100330;;;;
2023/02/15 07:15:40;;;;;;;15.3;9.4;;;;;;;2.8;83.6;100320;;;;
2023/02/15 07:26:40;;;;;;;15.3;9.4;;;;;;;3;83.8;100320;;;;
2023/02/15 07:36:40;;;;;;;15.3;9.4;;;;;;;3.1;82.9;100310;;;;
2023/02/15 07:46:40;;;;;;;17.2;9.2;;;;;;;3;83.2;100310;;;;
2023/02/15 07:56:40;;;;;;;17.2;9.2;;;;;;;3.3;82.8;100300;;;;
2023/02/15 08:06:40;;;;;;;17.2;9.2;;;;;;;3.3;82.3;100290;;;;
2023/02/15 08:16:40;;;;;;;14.5;10.7;;;;;;;3.5;81.9;100290;;;;
2023/02/15 08:27:40;;;;;;;14.5;10.7;;;;;;;3.7;80.7;100280;;;;
2023/02/15 08:37:40;;;;;;;14.5;10.7;;;;;;;3.7;80.7;100280;;;;
2023/02/15 08:48:40;;;;;;;15.8;11.2;;;;;;;4;79.6;100280;;;;
2023/02/15 08:58:40;;;;;;;15.8;11.2;;;;;;;4.4;79.2;100270;;;;
2023/02/15 09:09:40;;;;;;;15.8;11.2;;;;;;;4.8;77.9;100260;;;;
2023/02/15 09:19:40;;;;;;;19.5;12.3;;;;;;;5.2;77.6;100250;;;;
2023/02/15 09:30:40;;;;;;;19.5;12.3;;;;;;;5.6;76.3;100240;;;;
2023/02/15 09:40:40;;;;;;;19.5;12.3;;;;;;;5.8;75.7;100230;;;;
2023/02/15 09:50:41;;;;;;;19.7;13.2;;;;;;;6;74.6;100230;;;;
2023/02/15 10:01:40;;;;;;;19.7;13.2;;;;;;;6.3;74;100210;;;;
2023/02/15 10:12:40;;;;;;;17.3;13.9;;;;;;;6.7;72.6;100190;;;;
2023/02/15 10:22:40;;;;;;;17.3;13.9;;;;;;;6.7;72.1;100190;;;;
2023/02/15 10:33:41;;;;;;;17.3;13.9;;;;;;;7.2;70.7;100170;;;;
2023/02/15 10:43:40;;;;;;;20.6;15.2;;;;;;;7.4;70.3;100160;;;;
2023/02/15 10:54:40;;;;;;;20.6;15.2;;;;;;;7.9;68.8;100150;;;;
2023/02/15 11:04:41;;;;;;;20.6;15.2;;;;;;;7.8;68.3;100140;;;;
2023/02/15 11:14:40;;;;;;;19.3;14.8;;;;;;;8.4;68;100120;;;;
2023/02/15 11:25:40;;;;;;;19.3;14.8;;;;;;;8.8;67.9;100110;;;;
2023/02/15 11:35:41;;;;;;;19.3;14.8;;;;;;;8.7;67.9;100090;;;;
2023/02/15 11:45:40;;;;;;;20.6;16.7;;;;;;;9.1;66.7;100090;;;;
2023/02/15 11:56:40;;;;;;;20.6;16.7;;;;;;;9.2;66.1;100070;;;;
2023/02/15 12:07:40;;;;;;;20.6;16.7;;;;;;;9.5;66.4;100060;;;;
2023/02/15 12:18:41;;;;;;;23.2;17.3;;;;;;;9.4;65.6;100040;;;;
2023/02/15 12:29:40;;;;;;;23.2;17.3;;;;;;;9.7;65.7;100020;;;;
2023/02/15 12:39:40;;;;;;;23.2;17.3;;;;;;;9.9;65;100010;;;;
2023/02/15 12:49:40;;;;;;;22.4;17.7;;;;;;;10.1;63.9;100010;;;;
2023/02/15 12:59:40;;;;;;;22.4;17.7;;;;;;;10.1;63.5;100000;;;;
2023/02/15 13:09:40;;;;;;;22.4;17.7;;;;;;;9.9;63.6;99990;;;;
2023/02/15 13:20:41;;;;;;;22.7;18.9;;;;;;;10.1;63.4;99980;;;;
2023/02/15 13:31:40;;;;;;;22.7;18.9;;;;;;;10.1;63.4;99970;;;;
2023/02/15 13:41:40;;;;;;;29;22.5;;;;;;;10.2;63.6;99960;;;;
2023/02/15 13:51:40;;;;;;;29;22.5;;;;;;;10.2;63.5;99950;;;;
2023/02/15 14:01:41;;;;;;;29;22.5;;;;;;;10.1;63.4;99950;;;;
2023/02/15 14:11:40;;;;;;;25.7;20.3;;;;;;;10.1;63.7;99940;;;;
2023/02/15 14:21:40;;;;;;;25.7;20.3;;;;;;;10;64.1;99930;;;;
2023/02/15 14:31:40;;;;;;;25.7;20.3;;;;;;;9.9;64.5;99930;;;;
2023/02/15 14:42:40;;;;;;;28.8;23;;;;;;;9.7;65.3;99930;;;;
2023/02/15 14:52:40;;;;;;;28.8;23;;;;;;;9.5;65.7;99920;;;;
2023/02/15 15:03:40;;;;;;;28.8;23;;;;;;;9.1;66.4;99920;;;;
2023/02/15 15:13:42;;;;;;;28.8;22.8;;;;;;;8.8;67.5;99920;;;;
2023/02/15 15:23:41;;;;;;;28.8;22.8;;;;;;;8.5;68.5;99910;;;;
2023/02/15 15:33:41;;;;;;;28.8;22.8;;;;;;;8;69.5;99900;;;;
2023/02/15 15:43:41;;;;;;;45.9;37.5;;;;;;;7.6;70.3;99890;;;;
2023/02/15 15:54:40;;;;;;;45.9;37.5;;;;;;;7.2;71.3;99890;;;;
2023/02/15 16:04:41;;;;;;;45.9;37.5;;;;;;;6.6;72.3;99900;;;;
2023/02/15 16:14:42;;;;;;;39.6;27;;;;;;;6.1;73.5;99890;;;;
2023/02/15 16:25:41;;;;;;;39.6;27;;;;;;;5.7;75.7;99900;;;;
2023/02/15 16:36:41;;;;;;;39.6;27;;;;;;;5.3;77.1;99890;;;;
2023/02/15 16:46:41;;;;;;;29.7;21.6;;;;;;;5.1;77.8;99890;;;;
2023/02/15 16:57:41;;;;;;;29.7;21.6;;;;;;;4.8;79.3;99900;;;;
2023/02/15 17:07:41;;;;;;;29.7;21.6;;;;;;;4.6;80;99890;;;;
2023/02/15 17:17:41;;;;;;;31.7;20.3;;;;;;;4.2;80.3;99890;;;;
2023/02/15 17:28:41;;;;;;;31.7;20.3;;;;;;;3.9;80.8;99890;;;;
2023/02/15 17:39:41;;;;;;;31.7;20.3;;;;;;;3.7;82.8;99890;;;;
2023/02/15 17:50:41;;;;;;;35.7;21.3;;;;;;;3.5;83.5;99880;;;;
2023/02/15 18:11:41;;;;;;;51.1;24.1;;;;;;;3.1;84.2;99870;;;;
2023/02/15 18:21:41;;;;;;;51.1;24.1;;;;;;;2.9;84.4;99880;;;;
2023/02/15 18:32:41;;;;;;;51.1;24.1;;;;;;;2.6;84.4;99870;;;;
2023/02/15 18:42:45;;;;;;;177.1;85.7;;;;;;;2.3;84.8;99870;;;;
2023/02/15 18:52:41;;;;;;;177.1;85.7;;;;;;;2.1;85.2;99870;;;;
2023/02/15 19:02:41;;;;;;;177.1;85.7;;;;;;;1.9;85.2;99860;;;;
2023/02/15 19:13:41;;;;;;;80.4;38.9;;;;;;;1.7;85.7;99860;;;;
2023/02/15 19:24:41;;;;;;;80.4;38.9;;;;;;;1.5;86.4;99860;;;;
2023/02/15 19:35:41;;;;;;;80.4;38.9;;;;;;;1.3;86.5;99850;;;;
2023/02/15 19:46:41;;;;;;;49.1;24.9;;;;;;;1.2;87.1;99850;;;;
2023/02/15 19:56:41;;;;;;;49.1;24.9;;;;;;;1.1;87.2;99840;;;;
2023/02/15 20:07:41;;;;;;;49.1;24.9;;;;;;;1;87.6;99840;;;;
2023/02/15 20:18:43;;;;;;;41.8;25.2;;;;;;;1;87.7;99840;;;;
2023/02/15 20:28:41;;;;;;;41.8;25.2;;;;;;;0.9;87.7;99830;;;;
2023/02/15 20:39:41;;;;;;;41.8;25.2;;;;;;;0.7;87.3;99830;;;;
2023/02/15 20:50:41;;;;;;;47.5;28;;;;;;;0.4;87.1;99830;;;;
2023/02/15 21:00:41;;;;;;;47.5;28;;;;;;;0.2;86.7;99810;;;;
2023/02/15 21:11:41;;;;;;;52.9;30.1;;;;;;;0.1;86.8;99810;;;;
2023/02/15 21:21:41;;;;;;;52.9;30.1;;;;;;;0.1;87.1;99810;;;;
2023/02/15 21:32:41;;;;;;;52.9;30.1;;;;;;;0.1;87.3;99800;;;;
2023/02/15 21:53:41;;;;;;;43.4;25.8;;;;;;;0.1;87.6;99790;;;;
2023/02/15 22:03:41;;;;;;;43.4;25.8;;;;;;;0;87.5;99780;;;;
2023/02/15 22:13:41;;;;;;;50.4;28.5;;;;;;;-0.1;87.6;99790;;;;
2023/02/15 22:24:41;;;;;;;50.4;28.5;;;;;;;-0.2;87.8;99790;;;;
2023/02/15 22:34:41;;;;;;;50.4;28.5;;;;;;;-0.2;87.8;99780;;;;
2023/02/15 22:45:41;;;;;;;50.8;30.2;;;;;;;-0.2;88;99770;;;;
2023/02/15 22:55:41;;;;;;;50.8;30.2;;;;;;;-0.1;88.3;99760;;;;
2023/02/15 23:05:41;;;;;;;50.8;30.2;;;;;;;0;88.8;99760;;;;
2023/02/15 23:15:41;;;;;;;59.2;33.6;;;;;;;0.1;89.1;99750;;;;
2023/02/15 23:25:41;;;;;;;59.2;33.6;;;;;;;0;89;99750;;;;
2023/02/15 23:35:41;;;;;;;59.2;33.6;;;;;;;-0.1;88.8;99750;;;;
2023/02/15 23:46:41;;;;;;;60.9;31.8;;;;;;;-0.1;88.7;99750;;;;
2023/02/15 23:56:41;;;;;;;60.9;31.8;;;;;;;-0.2;88.7;99740;;;;
